Time;durP1;ratioP1;P1;durP2;ratioP2;P2;SDS_P1;SDS_P2;PMS_P1;PMS_P2;Temp;Humidity;BMP_temperature;BMP_pressure;BME280_temperature;BME280_humidity;BME280_pressure;Samples;Min_cycle;Max_cycle;Signal;HPM_P1;HPM_P2
2021/10/23 00:02:08;;;;;;;38.57;34.77;;;7.00;99.90;;;;;;5093382;28;20488;-71
2021/10/23 00:04:35;;;;;;;38.43;35.33;;;7.10;99.90;;;;;;5095595;28;20460;-69
2021/10/23 00:07:02;;;;;;;40.00;36.10;;;7.10;99.90;;;;;;5095180;28;20650;-71
2021/10/23 00:09:30;;;;;;;38.77;35.87;;;7.20;99.90;;;;;;5103746;28;20457;-71
2021/10/23 00:11:58;;;;;;;39.83;36.10;;;7.20;99.90;;;;;;5095973;28;20472;-70
2021/10/23 00:14:25;;;;;;;41.87;37.37;;;7.20;99.90;;;;;;5099114;28;20952;-69
2021/10/23 00:16:52;;;;;;;41.83;38.13;;;7.30;99.90;;;;;;5092809;28;20452;-70
2021/10/23 00:19:19;;;;;;;40.70;37.00;;;7.40;99.90;;;;;;5097477;28;20476;-71
2021/10/23 00:21:46;;;;;;;41.93;38.23;;;7.40;99.90;;;;;;5096307;28;20478;-70
2021/10/23 00:24:13;;;;;;;41.73;38.27;;;7.50;99.90;;;;;;5097674;28;20538;-71
2021/10/23 00:26:41;;;;;;;41.83;38.40;;;7.60;99.90;;;;;;5097371;28;20457;-70
2021/10/23 00:29:08;;;;;;;40.27;36.50;;;7.60;99.90;;;;;;5089837;28;20475;-71
2021/10/23 00:31:35;;;;;;;42.50;38.40;;;7.70;99.90;;;;;;5091520;28;20850;-69
2021/10/23 00:34:02;;;;;;;39.40;36.30;;;7.70;99.90;;;;;;5101516;28;20466;-70
2021/10/23 00:36:29;;;;;;;41.57;37.67;;;7.80;99.90;;;;;;5100672;28;20464;-69
2021/10/23 00:38:56;;;;;;;43.30;39.73;;;7.80;99.90;;;;;;5101822;28;20987;-72
2021/10/23 00:41:23;;;;;;;40.13;36.77;;;7.80;99.90;;;;;;5101194;28;20804;-70
2021/10/23 00:43:51;;;;;;;42.17;37.80;;;7.90;99.90;;;;;;5095225;28;20457;-70
2021/10/23 00:46:18;;;;;;;42.73;39.03;;;7.90;99.90;;;;;;5089198;28;20461;-70
2021/10/23 00:48:45;;;;;;;41.23;37.93;;;7.90;99.90;;;;;;5102077;28;20560;-70
2021/10/23 00:51:15;;;;;;;42.20;38.73;;;8.10;99.90;;;;;;5095657;28;20557;-70
2021/10/23 00:53:42;;;;;;;44.10;39.87;;;8.10;99.90;;;;;;5098688;28;20472;-72
2021/10/23 00:56:09;;;;;;;41.30;37.93;;;8.10;99.90;;;;;;5096514;28;21056;-71
2021/10/23 00:58:36;;;;;;;41.30;37.00;;;8.20;99.90;;;;;;5100792;28;20472;-70
2021/10/23 01:01:05;;;;;;;40.37;36.90;;;8.20;99.90;;;;;;5087914;28;20473;-70
2021/10/23 01:03:32;;;;;;;44.43;40.33;;;8.20;99.90;;;;;;5104354;28;20479;-71
2021/10/23 01:06:00;;;;;;;43.43;39.53;;;8.30;99.90;;;;;;5098206;28;20456;-69
2021/10/23 01:08:27;;;;;;;42.27;38.47;;;8.30;99.90;;;;;;5090974;28;20466;-72
2021/10/23 01:10:54;;;;;;;43.63;39.80;;;8.30;99.90;;;;;;5104406;28;20986;-70
2021/10/23 01:13:21;;;;;;;46.00;41.80;;;8.40;99.90;;;;;;5099175;28;20525;-72
2021/10/23 01:15:48;;;;;;;41.97;38.23;;;8.40;99.90;;;;;;5096528;28;20984;-70
2021/10/23 01:18:17;;;;;;;45.30;41.10;;;8.50;99.90;;;;;;5095136;28;20459;-69
2021/10/23 01:20:45;;;;;;;44.13;40.20;;;8.50;99.90;;;;;;5102440;28;20856;-69
2021/10/23 01:23:12;;;;;;;44.53;40.37;;;8.50;99.90;;;;;;5089456;28;20496;-69
2021/10/23 01:25:39;;;;;;;43.97;40.07;;;8.50;99.90;;;;;;5089927;28;21176;-69
2021/10/23 01:28:06;;;;;;;42.10;38.20;;;8.50;99.90;;;;;;5100626;28;20838;-70
2021/10/23 01:30:34;;;;;;;44.23;40.43;;;8.50;99.90;;;;;;5091174;28;20460;-69
2021/10/23 01:33:02;;;;;;;43.37;39.07;;;8.50;99.90;;;;;;5092780;28;20461;-70
2021/10/23 01:35:29;;;;;;;42.80;39.00;;;8.40;99.90;;;;;;5099554;28;20464;-70
2021/10/23 01:37:58;;;;;;;45.20;41.00;;;8.50;99.90;;;;;;5104111;28;20893;-69
2021/10/23 01:40:28;;;;;;;42.63;38.73;;;8.50;99.90;;;;;;5096254;28;20529;-70
2021/10/23 01:42:55;;;;;;;44.77;40.73;;;8.50;99.90;;;;;;5092175;28;20534;-69
2021/10/23 01:45:22;;;;;;;45.80;41.30;;;8.60;99.90;;;;;;5097176;28;20466;-72
2021/10/23 01:47:49;;;;;;;46.07;41.73;;;8.50;99.90;;;;;;5094314;28;20475;-72
2021/10/23 01:50:18;;;;;;;47.30;41.80;;;8.60;99.90;;;;;;5083257;28;21015;-71
2021/10/23 01:52:44;;;;;;;47.50;42.10;;;8.50;99.90;;;;;;5090035;28;20577;-70
2021/10/23 01:55:15;;;;;;;46.83;42.10;;;8.50;99.90;;;;;;5095329;28;20466;-72
2021/10/23 01:57:43;;;;;;;45.67;41.33;;;8.40;99.90;;;;;;5091271;28;20961;-73
2021/10/23 02:00:12;;;;;;;47.30;42.90;;;8.40;99.90;;;;;;5094871;28;21027;-71
2021/10/23 02:02:40;;;;;;;50.23;45.43;;;8.40;99.90;;;;;;5087211;28;20893;-73
2021/10/23 02:05:07;;;;;;;51.57;45.97;;;8.40;99.90;;;;;;5098600;28;20472;-71
2021/10/23 02:07:34;;;;;;;49.70;45.53;;;8.40;99.90;;;;;;5093922;28;20547;-71
2021/10/23 02:10:02;;;;;;;49.90;45.27;;;8.40;99.90;;;;;;5101553;28;20507;-72
2021/10/23 02:12:31;;;;;;;50.47;45.40;;;8.30;99.90;;;;;;5098326;28;20467;-71
2021/10/23 02:14:57;;;;;;;52.33;45.40;;;8.30;99.90;;;;;;5099339;28;20460;-71
2021/10/23 02:17:25;;;;;;;50.57;45.37;;;8.30;99.90;;;;;;5086450;28;20458;-69
2021/10/23 02:19:52;;;;;;;50.67;45.77;;;8.30;99.90;;;;;;5093786;28;20460;-67
2021/10/23 02:22:19;;;;;;;50.90;46.03;;;8.40;99.90;;;;;;5094340;28;20547;-68
2021/10/23 02:24:46;;;;;;;55.67;50.30;;;8.30;99.90;;;;;;5099166;28;20456;-70
2021/10/23 02:27:13;;;;;;;53.10;48.10;;;8.40;99.90;;;;;;5096233;28;20546;-68
2021/10/23 02:29:42;;;;;;;55.43;50.03;;;8.30;99.90;;;;;;5095704;28;20466;-70
2021/10/23 02:32:09;;;;;;;54.30;49.10;;;8.20;99.90;;;;;;5084303;28;20466;-69
2021/10/23 02:34:36;;;;;;;52.60;47.83;;;8.10;99.90;;;;;;5101188;28;20488;-69
2021/10/23 02:37:04;;;;;;;63.20;49.83;;;7.90;99.90;;;;;;5099789;28;21076;-69
2021/10/23 02:39:30;;;;;;;51.37;46.00;;;7.80;99.90;;;;;;5096486;28;20613;-69
2021/10/23 02:41:57;;;;;;;52.37;46.83;;;7.80;99.90;;;;;;5093654;28;20558;-69
2021/10/23 02:44:24;;;;;;;52.60;47.03;;;7.80;99.90;;;;;;5091079;28;20472;-69
2021/10/23 02:46:52;;;;;;;55.77;48.90;;;7.80;99.90;;;;;;5088705;28;20456;-69
2021/10/23 02:49:19;;;;;;;54.67;49.20;;;7.90;99.90;;;;;;5093105;28;21194;-69
2021/10/23 02:51:47;;;;;;;55.23;50.10;;;7.90;99.90;;;;;;5089164;28;20471;-69
2021/10/23 02:54:14;;;;;;;54.50;48.13;;;8.00;99.90;;;;;;5091521;28;20468;-69
2021/10/23 02:56:41;;;;;;;61.30;50.33;;;8.00;99.90;;;;;;5088491;28;20484;-69
2021/10/23 02:59:07;;;;;;;54.20;48.97;;;8.10;99.90;;;;;;5099917;28;20813;-69
2021/10/23 03:01:35;;;;;;;53.33;47.80;;;8.10;99.90;;;;;;5088917;28;20454;-70
2021/10/23 03:04:05;;;;;;;57.37;51.67;;;8.20;99.90;;;;;;5093697;28;20464;-68
2021/10/23 03:06:32;;;;;;;54.70;48.90;;;8.30;99.90;;;;;;5096394;28;20938;-69
2021/10/23 03:08:59;;;;;;;53.70;48.30;;;8.30;99.90;;;;;;5100054;28;20461;-69
2021/10/23 03:11:25;;;;;;;57.57;49.60;;;8.30;99.90;;;;;;5099452;28;20463;-69
2021/10/23 03:13:52;;;;;;;54.60;48.97;;;8.40;99.90;;;;;;5107756;28;20458;-69
2021/10/23 03:16:19;;;;;;;55.33;49.73;;;8.40;99.90;;;;;;5089627;28;20460;-69
2021/10/23 03:18:47;;;;;;;52.07;47.10;;;8.40;99.90;;;;;;5096650;28;21390;-69
2021/10/23 03:21:16;;;;;;;53.47;47.77;;;8.40;99.90;;;;;;5098369;28;20458;-69
2021/10/23 03:23:42;;;;;;;53.90;48.53;;;8.30;99.90;;;;;;5091061;28;20495;-69
2021/10/23 03:26:09;;;;;;;54.07;48.47;;;8.40;99.90;;;;;;5101988;28;20460;-69
2021/10/23 03:28:36;;;;;;;53.67;48.03;;;8.40;99.90;;;;;;5103109;28;20814;-68
2021/10/23 03:31:03;;;;;;;54.87;49.63;;;8.40;99.90;;;;;;5090636;28;20470;-69
2021/10/23 03:33:30;;;;;;;57.50;51.67;;;8.40;99.90;;;;;;5092468;28;20463;-68
2021/10/23 03:35:57;;;;;;;56.53;51.00;;;8.40;99.90;;;;;;5095597;28;20473;-69
2021/10/23 03:38:25;;;;;;;59.63;53.83;;;8.30;99.90;;;;;;5096905;28;20534;-69
2021/10/23 03:40:52;;;;;;;55.53;49.87;;;8.30;99.90;;;;;;5102686;28;20460;-71
2021/10/23 03:43:19;;;;;;;56.90;51.40;;;8.10;99.90;;;;;;5096304;28;20480;-69
2021/10/23 03:45:45;;;;;;;57.23;51.67;;;8.00;99.90;;;;;;5096462;28;20975;-69
2021/10/23 03:48:12;;;;;;;55.77;48.00;;;7.90;99.90;;;;;;5099444;28;20457;-69
2021/10/23 03:50:39;;;;;;;57.60;51.40;;;7.80;99.90;;;;;;5089504;28;20480;-68
2021/10/23 03:53:06;;;;;;;57.87;51.97;;;7.80;99.90;;;;;;5096985;28;20454;-69
2021/10/23 03:55:35;;;;;;;64.70;50.43;;;7.80;99.90;;;;;;5094665;28;20477;-69
2021/10/23 03:58:02;;;;;;;55.00;49.17;;;7.80;99.90;;;;;;5094216;28;20469;-68
2021/10/23 04:00:29;;;;;;;54.03;48.50;;;7.80;99.90;;;;;;5097112;28;20953;-68
2021/10/23 04:02:56;;;;;;;52.90;47.60;;;7.90;99.90;;;;;;5090721;28;20476;-69
2021/10/23 04:05:23;;;;;;;56.30;48.33;;;7.90;99.90;;;;;;5088629;28;20982;-69
2021/10/23 04:07:50;;;;;;;57.87;52.13;;;7.90;99.90;;;;;;5085958;28;20454;-69
2021/10/23 04:10:17;;;;;;;65.17;56.87;;;8.00;99.90;;;;;;5092209;28;20582;-69
2021/10/23 04:12:45;;;;;;;67.30;60.13;;;8.00;99.90;;;;;;5098964;28;20461;-68
2021/10/23 04:15:12;;;;;;;64.67;57.77;;;8.00;99.90;;;;;;5095892;28;20458;-69
2021/10/23 04:17:41;;;;;;;58.20;52.33;;;8.00;99.90;;;;;;5084307;28;20551;-69
2021/10/23 04:20:09;;;;;;;59.63;53.50;;;8.00;99.90;;;;;;5084542;28;20519;-69
2021/10/23 04:22:35;;;;;;;57.27;51.57;;;8.00;99.90;;;;;;5091967;28;20481;-68
2021/10/23 04:25:02;;;;;;;56.07;50.60;;;7.90;99.90;;;;;;5095314;28;20462;-68
2021/10/23 04:27:29;;;;;;;56.70;50.63;;;7.90;99.90;;;;;;5096777;28;20466;-68
2021/10/23 04:29:58;;;;;;;58.17;48.67;;;7.90;99.90;;;;;;5101368;28;20461;-68
2021/10/23 04:32:24;;;;;;;52.40;46.63;;;7.90;99.90;;;;;;5083384;28;20455;-69
2021/10/23 04:34:52;;;;;;;50.30;45.07;;;8.00;99.90;;;;;;5094817;28;20462;-69
2021/10/23 04:37:19;;;;;;;55.57;47.37;;;7.90;99.90;;;;;;5100464;28;20966;-69
2021/10/23 04:39:45;;;;;;;51.53;46.23;;;7.90;99.90;;;;;;5099848;28;20838;-69
2021/10/23 04:42:12;;;;;;;56.03;50.37;;;7.80;99.90;;;;;;5101377;28;20462;-69
2021/10/23 04:44:39;;;;;;;54.67;49.30;;;7.80;99.90;;;;;;5103739;28;21040;-69
2021/10/23 04:47:07;;;;;;;55.30;48.20;;;7.90;99.90;;;;;;5101651;28;20462;-69
2021/10/23 04:49:35;;;;;;;51.57;46.57;;;7.90;99.90;;;;;;5097635;28;20555;-69
2021/10/23 04:52:02;;;;;;;54.23;49.20;;;7.90;99.90;;;;;;5099211;28;20458;-68
2021/10/23 04:54:28;;;;;;;53.10;48.07;;;7.90;99.90;;;;;;5091063;28;21057;-69
2021/10/23 04:56:55;;;;;;;53.73;48.10;;;8.00;99.90;;;;;;5103480;28;20973;-68
2021/10/23 04:59:22;;;;;;;51.07;46.13;;;8.00;99.90;;;;;;5097460;28;20465;-69
2021/10/23 05:01:49;;;;;;;55.00;49.50;;;7.90;99.90;;;;;;5095898;28;20465;-68
2021/10/23 05:04:18;;;;;;;54.40;48.80;;;7.90;99.90;;;;;;5099526;28;20593;-68
2021/10/23 05:06:44;;;;;;;53.77;48.77;;;7.80;99.90;;;;;;5101506;28;20525;-69
2021/10/23 05:09:11;;;;;;;52.10;46.90;;;7.70;99.90;;;;;;5101733;28;20464;-69
2021/10/23 05:11:38;;;;;;;50.70;45.87;;;7.50;99.90;;;;;;5095543;28;20817;-68
2021/10/23 05:14:05;;;;;;;51.73;46.83;;;7.40;99.90;;;;;;5095045;28;20472;-68
2021/10/23 05:16:32;;;;;;;55.90;50.30;;;7.30;99.90;;;;;;5086981;28;21007;-68
2021/10/23 05:18:59;;;;;;;54.77;49.07;;;7.20;99.90;;;;;;5093852;28;20517;-69
2021/10/23 05:21:27;;;;;;;52.80;47.30;;;7.10;99.90;;;;;;5098722;28;20466;-69
2021/10/23 05:23:56;;;;;;;54.17;48.93;;;7.10;99.90;;;;;;5097839;28;20487;-69
2021/10/23 05:26:23;;;;;;;54.90;47.70;;;7.10;99.90;;;;;;5090824;28;20489;-69
2021/10/23 05:28:50;;;;;;;53.03;47.73;;;7.20;99.90;;;;;;5104922;28;21153;-68
2021/10/23 05:31:17;;;;;;;55.10;49.70;;;7.30;99.90;;;;;;5088120;28;21310;-69
2021/10/23 05:33:44;;;;;;;56.10;50.20;;;7.30;99.90;;;;;;5096300;28;20490;-69
2021/10/23 05:36:12;;;;;;;53.43;48.50;;;7.30;99.90;;;;;;5093660;28;20896;-69
2021/10/23 05:38:40;;;;;;;55.97;50.47;;;7.30;99.90;;;;;;5098705;28;20469;-68
2021/10/23 05:41:07;;;;;;;54.90;49.20;;;7.40;99.90;;;;;;5096991;28;20965;-69
2021/10/23 05:43:34;;;;;;;55.43;49.53;;;7.40;99.90;;;;;;5097876;28;21010;-69
2021/10/23 05:46:00;;;;;;;54.73;49.57;;;7.40;99.90;;;;;;5097367;28;20553;-68
2021/10/23 05:48:27;;;;;;;54.00;48.60;;;7.40;99.90;;;;;;5103779;28;20891;-68
2021/10/23 05:50:54;;;;;;;55.43;49.83;;;7.30;99.90;;;;;;5101224;28;20471;-68
2021/10/23 05:53:20;;;;;;;56.07;50.30;;;7.30;99.90;;;;;;5092366;28;20461;-69
2021/10/23 05:55:49;;;;;;;55.40;46.97;;;7.30;99.90;;;;;;5092366;28;20492;-69
2021/10/23 05:58:15;;;;;;;55.70;49.40;;;7.30;99.90;;;;;;5099497;28;20984;-69
2021/10/23 06:00:49;;;;;;;53.33;47.70;;;7.40;99.90;;;;;;5088994;28;20473;-69
2021/10/23 06:03:19;;;;;;;71.60;60.97;;;7.40;99.90;;;;;;5090640;28;20509;-68
2021/10/23 06:05:46;;;;;;;57.13;50.90;;;7.50;99.90;;;;;;5085123;28;20577;-69
2021/10/23 06:08:13;;;;;;;54.30;48.63;;;7.50;99.90;;;;;;5087287;28;20988;-69
2021/10/23 06:10:40;;;;;;;55.03;49.30;;;7.60;99.90;;;;;;5087956;28;20986;-69
2021/10/23 06:13:09;;;;;;;62.37;55.53;;;7.70;99.90;;;;;;5095867;28;20471;-69
2021/10/23 06:15:35;;;;;;;57.03;50.93;;;7.70;99.90;;;;;;5089036;28;20465;-69
2021/10/23 06:18:03;;;;;;;58.10;49.97;;;7.80;99.90;;;;;;5086486;28;20471;-69
2021/10/23 06:20:31;;;;;;;57.63;51.80;;;7.90;99.90;;;;;;5092537;28;20472;-68
2021/10/23 06:22:58;;;;;;;56.90;51.00;;;7.90;99.90;;;;;;5090877;28;20842;-69
2021/10/23 06:25:25;;;;;;;54.57;48.90;;;7.90;99.90;;;;;;5094016;28;20458;-68
2021/10/23 06:27:52;;;;;;;54.27;48.43;;;8.00;99.90;;;;;;5094473;28;20518;-69
2021/10/23 06:30:21;;;;;;;55.80;50.00;;;8.00;99.90;;;;;;5093846;28;20462;-69
2021/10/23 06:32:49;;;;;;;59.63;49.00;;;8.00;99.90;;;;;;5095354;28;20467;-69
2021/10/23 06:35:17;;;;;;;57.37;51.43;;;8.00;99.90;;;;;;5087571;28;20500;-68
2021/10/23 06:37:44;;;;;;;58.70;52.60;;;8.00;99.90;;;;;;5088908;28;20462;-69
2021/10/23 06:40:12;;;;;;;57.70;51.60;;;8.10;99.90;;;;;;5090435;28;20560;-69
2021/10/23 06:42:40;;;;;;;59.60;53.20;;;8.20;99.90;;;;;;5089229;28;20810;-68
2021/10/23 06:45:09;;;;;;;54.60;49.00;;;8.20;99.90;;;;;;5091332;28;20500;-68
2021/10/23 06:47:38;;;;;;;56.27;50.40;;;8.20;99.90;;;;;;5090114;28;20557;-69
2021/10/23 06:50:08;;;;;;;56.83;50.80;;;8.30;99.90;;;;;;5098343;28;20563;-69
2021/10/23 06:52:35;;;;;;;57.10;51.30;;;8.30;99.90;;;;;;5091512;28;20448;-69
2021/10/23 06:55:03;;;;;;;53.33;47.77;;;8.40;99.90;;;;;;5097498;28;20519;-69
2021/10/23 06:57:30;;;;;;;54.63;49.13;;;8.40;99.90;;;;;;5092645;28;20484;-69
2021/10/23 06:59:57;;;;;;;56.83;50.70;;;8.50;99.90;;;;;;5097973;28;20852;-69
2021/10/23 07:02:24;;;;;;;56.87;49.33;;;8.60;99.90;;;;;;5092557;28;20465;-68
2021/10/23 07:04:52;;;;;;;53.87;48.40;;;8.60;99.90;;;;;;5085313;28;20491;-69
2021/10/23 07:07:19;;;;;;;58.27;49.70;;;8.70;99.90;;;;;;5097323;28;20527;-68
2021/10/23 07:09:46;;;;;;;60.10;50.13;;;8.80;99.90;;;;;;5089621;28;20454;-69
2021/10/23 07:12:13;;;;;;;55.93;50.03;;;8.80;99.90;;;;;;5099939;28;20465;-68
2021/10/23 07:14:40;;;;;;;56.67;50.70;;;8.90;99.90;;;;;;5094166;28;20454;-68
2021/10/23 07:17:08;;;;;;;55.70;47.77;;;9.00;99.90;;;;;;5092138;28;20508;-69
2021/10/23 07:19:35;;;;;;;64.90;51.37;;;9.00;99.90;;;;;;5095507;28;20453;-68
2021/10/23 07:22:04;;;;;;;54.60;49.03;;;9.10;99.90;;;;;;5089453;28;20471;-70
2021/10/23 07:24:32;;;;;;;51.00;45.47;;;9.10;99.90;;;;;;5094820;28;20592;-69
2021/10/23 07:26:59;;;;;;;52.60;46.87;;;9.10;99.90;;;;;;5093893;28;20959;-68
2021/10/23 07:29:26;;;;;;;52.27;46.87;;;9.10;99.90;;;;;;5094999;28;20466;-69
2021/10/23 07:31:53;;;;;;;51.67;46.47;;;9.20;99.90;;;;;;5095959;28;20555;-68
2021/10/23 07:34:20;;;;;;;55.80;50.17;;;9.30;99.90;;;;;;5099392;28;20460;-69
2021/10/23 07:36:47;;;;;;;56.17;49.00;;;9.50;99.90;;;;;;5098489;28;20822;-68
2021/10/23 07:39:15;;;;;;;56.83;49.87;;;9.60;99.90;;;;;;5101981;28;20487;-69
2021/10/23 07:41:42;;;;;;;50.10;44.77;;;9.60;99.90;;;;;;5099872;28;20553;-68
2021/10/23 07:44:10;;;;;;;49.20;43.23;;;9.60;99.90;;;;;;5095636;28;20585;-68
2021/10/23 07:46:38;;;;;;;50.70;45.03;;;9.50;99.90;;;;;;5089920;28;20471;-69
2021/10/23 07:49:06;;;;;;;49.83;44.30;;;9.70;99.90;;;;;;5084201;28;20493;-69
2021/10/23 07:51:33;;;;;;;47.73;42.13;;;9.80;99.90;;;;;;5083623;28;20469;-68
2021/10/23 07:54:00;;;;;;;49.20;43.80;;;9.80;99.90;;;;;;5098607;28;20470;-69
2021/10/23 07:56:29;;;;;;;47.40;42.40;;;9.90;99.90;;;;;;5088307;28;20911;-71
2021/10/23 07:58:55;;;;;;;53.20;42.03;;;9.90;99.90;;;;;;5103543;28;20472;-69
2021/10/23 08:01:22;;;;;;;59.60;42.87;;;10.10;99.90;;;;;;5096708;28;20458;-68
2021/10/23 08:03:49;;;;;;;54.90;41.97;;;10.00;99.90;;;;;;5103206;28;20480;-71
2021/10/23 08:06:16;;;;;;;48.70;39.23;;;10.10;99.90;;;;;;5087292;28;20493;-70
2021/10/23 08:08:43;;;;;;;57.13;41.47;;;10.10;99.90;;;;;;5095618;28;20462;-69
2021/10/23 08:11:10;;;;;;;47.00;37.77;;;10.30;99.90;;;;;;5091070;28;20798;-68
2021/10/23 08:13:39;;;;;;;47.47;36.13;;;10.30;99.90;;;;;;5096168;28;20471;-69
2021/10/23 08:16:06;;;;;;;46.63;38.20;;;10.40;99.90;;;;;;5090968;28;20469;-71
2021/10/23 08:18:34;;;;;;;44.23;35.77;;;10.30;99.90;;;;;;5091542;28;20484;-71
2021/10/23 08:21:01;;;;;;;42.30;35.90;;;10.40;99.90;;;;;;5095756;28;20861;-69
2021/10/23 08:23:28;;;;;;;42.33;36.10;;;10.40;99.90;;;;;;5098026;28;20506;-69
2021/10/23 08:25:56;;;;;;;47.20;39.80;;;10.50;99.90;;;;;;5081659;28;20471;-71
2021/10/23 08:28:23;;;;;;;44.70;38.23;;;10.60;99.90;;;;;;5085331;28;21201;-69
2021/10/23 08:30:52;;;;;;;44.83;36.93;;;10.60;99.90;;;;;;5091063;28;20453;-69
2021/10/23 08:33:19;;;;;;;432.13;256.20;;;10.70;99.90;;;;;;5092343;28;20461;-70
2021/10/23 08:35:46;;;;;;;59.13;41.47;;;10.80;99.90;;;;;;5099878;28;20467;-69
2021/10/23 08:38:13;;;;;;;43.50;38.50;;;10.90;99.90;;;;;;5102205;28;20454;-69
2021/10/23 08:40:41;;;;;;;41.50;35.57;;;10.80;99.90;;;;;;5094786;28;20808;-70
2021/10/23 08:43:08;;;;;;;53.70;40.40;;;10.70;99.90;;;;;;5089989;28;20885;-69
2021/10/23 08:45:37;;;;;;;46.60;39.27;;;11.00;99.90;;;;;;5094493;28;20485;-70
2021/10/23 08:48:07;;;;;;;46.57;40.37;;;11.20;99.90;;;;;;5097549;28;20461;-69
2021/10/23 08:50:35;;;;;;;41.67;32.70;;;11.30;99.90;;;;;;5098090;28;20454;-69
2021/10/23 08:53:03;;;;;;;39.43;35.03;;;11.50;99.90;;;;;;5096690;28;20450;-69
2021/10/23 08:55:31;;;;;;;42.50;35.40;;;11.70;99.90;;;;;;5089395;28;20462;-71
2021/10/23 08:57:58;;;;;;;43.57;34.27;;;11.70;99.90;;;;;;5099070;28;20463;-69
2021/10/23 09:00:26;;;;;;;36.70;32.80;;;12.00;99.90;;;;;;5097570;28;20466;-69
2021/10/23 09:02:53;;;;;;;36.93;33.20;;;12.20;99.90;;;;;;5099749;28;20463;-70
2021/10/23 09:05:22;;;;;;;41.50;34.30;;;12.30;99.90;;;;;;5099085;28;20486;-69
2021/10/23 09:07:51;;;;;;;39.03;33.40;;;12.40;99.90;;;;;;5100054;28;20531;-69
2021/10/23 09:10:27;;;;;;;35.90;30.70;;;12.40;99.90;;;;;;5094527;28;20461;-69
2021/10/23 09:13:05;;;;;;;41.07;31.57;;;12.30;99.90;;;;;;5096314;28;20514;-68
2021/10/23 09:15:37;;;;;;;35.63;31.23;;;12.20;99.90;;;;;;5092409;28;20486;-69
2021/10/23 09:18:04;;;;;;;49.13;41.70;;;12.30;99.90;;;;;;5090087;28;20482;-69
2021/10/23 09:20:39;;;;;;;38.47;30.13;;;12.60;99.90;;;;;;5091945;28;20458;-70
2021/10/23 09:23:06;;;;;;;35.73;31.87;;;12.70;99.90;;;;;;5091858;28;20538;-69
2021/10/23 09:25:35;;;;;;;43.10;31.57;;;12.70;99.90;;;;;;5093108;28;20492;-70
2021/10/23 09:28:04;;;;;;;31.87;28.50;;;12.50;99.90;;;;;;5092341;28;20456;-71
2021/10/23 09:30:33;;;;;;;34.50;30.37;;;12.40;99.90;;;;;;5086737;28;20550;-68
2021/10/23 09:33:05;;;;;;;35.90;29.53;;;12.10;99.90;;;;;;5098296;28;20519;-69
2021/10/23 09:35:35;;;;;;;34.20;28.60;;;12.30;99.90;;;;;;5096598;28;20458;-69
2021/10/23 09:38:03;;;;;;;28.97;26.03;;;12.50;99.90;;;;;;5096000;28;20572;-69
2021/10/23 09:40:32;;;;;;;34.40;27.90;;;12.70;99.90;;;;;;5097562;28;20540;-72
2021/10/23 09:43:12;;;;;;;34.90;30.07;;;12.40;99.90;;;;;;5095654;28;20454;-70
2021/10/23 09:46:08;;;;;;;36.40;29.23;;;12.60;99.90;;;;;;5094164;28;20495;-70
2021/10/23 09:48:36;;;;;;;30.97;27.73;;;12.80;99.90;;;;;;5097197;28;20803;-70
2021/10/23 09:51:20;;;;;;;32.53;29.13;;;12.90;99.90;;;;;;5093327;28;20472;-71
2021/10/23 09:53:48;;;;;;;30.40;27.27;;;13.00;99.90;;;;;;5087266;28;20469;-69
2021/10/23 09:56:21;;;;;;;35.00;30.03;;;13.20;99.90;;;;;;5091549;28;20547;-72
2021/10/23 09:58:56;;;;;;;30.30;27.40;;;13.20;99.90;;;;;;5087345;28;20454;-72
2021/10/23 10:01:25;;;;;;;31.60;28.60;;;13.40;99.90;;;;;;5092478;28;20501;-72
2021/10/23 10:03:53;;;;;;;29.53;26.77;;;13.50;99.90;;;;;;5082853;28;20470;-70
2021/10/23 10:06:26;;;;;;;29.70;27.10;;;13.80;99.90;;;;;;5080391;28;20483;-70
2021/10/23 10:08:53;;;;;;;38.50;33.60;;;13.90;99.90;;;;;;5088885;28;20465;-70
2021/10/23 10:11:20;;;;;;;28.53;25.63;;;14.30;99.90;;;;;;5099645;28;20985;-72
2021/10/23 10:13:48;;;;;;;28.50;25.77;;;14.70;99.90;;;;;;5098619;28;20552;-70
2021/10/23 10:16:18;;;;;;;25.83;23.53;;;14.50;99.90;;;;;;5092349;28;20450;-70
2021/10/23 10:18:48;;;;;;;26.67;24.23;;;14.70;99.90;;;;;;5093787;28;20557;-70
2021/10/23 10:21:20;;;;;;;28.03;25.40;;;14.60;99.90;;;;;;5094994;28;20458;-72
2021/10/23 10:23:51;;;;;;;27.17;24.67;;;14.70;99.90;;;;;;5094258;28;20481;-70
2021/10/23 10:26:29;;;;;;;25.57;23.23;;;14.50;99.90;;;;;;5094070;28;20785;-70
2021/10/23 10:29:16;;;;;;;24.10;21.60;;;14.60;99.90;;;;;;5098683;28;20946;-72
2021/10/23 10:31:54;;;;;;;26.83;24.10;;;14.70;99.90;;;;;;5091764;28;20457;-71
2021/10/23 10:35:03;;;;;;;25.87;23.43;;;14.50;99.90;;;;;;5102542;28;20483;-70
2021/10/23 10:37:51;;;;;;;24.90;22.67;;;14.50;99.90;;;;;;5102164;28;20558;-72
2021/10/23 10:43:13;;;;;;;22.17;20.30;;;15.00;99.90;;;;;;5093845;28;20482;-70
2021/10/23 10:45:53;;;;;;;23.80;21.53;;;15.00;99.90;;;;;;5091246;28;20482;-70
2021/10/23 10:48:22;;;;;;;23.53;21.73;;;15.20;99.90;;;;;;5095731;28;20463;-70
2021/10/23 10:50:51;;;;;;;23.20;21.00;;;15.60;99.90;;;;;;5095022;28;20553;-70
2021/10/23 10:53:21;;;;;;;21.57;19.77;;;15.70;99.90;;;;;;5097495;28;20453;-70
2021/10/23 10:55:51;;;;;;;21.23;19.60;;;15.80;99.90;;;;;;5088665;28;20485;-70
2021/10/23 10:58:20;;;;;;;20.20;18.60;;;15.80;99.90;;;;;;5094789;28;20454;-70
2021/10/23 11:01:13;;;;;;;21.37;19.87;;;15.80;99.90;;;;;;5094011;28;20573;-70
2021/10/23 11:03:46;;;;;;;20.80;19.27;;;16.10;99.90;;;;;;5099616;28;20468;-70
2021/10/23 11:06:53;;;;;;;21.17;19.07;;;16.20;99.90;;;;;;5096129;28;20485;-69
2021/10/23 11:09:50;;;;;;;21.40;19.60;;;16.20;99.90;;;;;;5025396;28;20554;-71
2021/10/23 11:12:36;;;;;;;21.10;19.60;;;15.70;99.90;;;;;;5101102;28;20460;-71
2021/10/23 11:15:04;;;;;;;20.70;19.07;;;16.10;99.90;;;;;;5083961;28;20454;-70
2021/10/23 11:17:37;;;;;;;21.67;19.73;;;16.30;99.90;;;;;;5086240;28;20989;-70
2021/10/23 11:20:05;;;;;;;22.20;20.30;;;16.40;99.90;;;;;;5088024;28;20480;-70
2021/10/23 11:22:35;;;;;;;22.97;20.70;;;16.70;99.90;;;;;;5085726;28;20473;-71
2021/10/23 11:25:05;;;;;;;21.23;19.63;;;17.00;99.90;;;;;;5094261;28;20852;-70
2021/10/23 11:27:39;;;;;;;20.73;19.03;;;17.10;99.90;;;;;;5095426;28;20461;-72
2021/10/23 11:30:17;;;;;;;22.33;19.73;;;17.30;99.90;;;;;;5087839;28;20460;-70
2021/10/23 11:32:48;;;;;;;22.13;20.13;;;16.90;99.90;;;;;;5087642;28;20498;-69
2021/10/23 11:35:17;;;;;;;29.20;26.40;;;16.90;99.90;;;;;;5088561;28;20465;-71
2021/10/23 11:37:44;;;;;;;23.30;21.20;;;16.90;99.90;;;;;;5087525;28;21023;-71
2021/10/23 11:40:14;;;;;;;23.07;21.17;;;17.20;99.90;;;;;;5095987;28;20473;-71
2021/10/23 11:42:53;;;;;;;21.60;19.57;;;16.90;99.90;;;;;;5093319;28;20460;-71
2021/10/23 11:45:24;;;;;;;20.23;18.40;;;16.60;99.90;;;;;;5091706;28;20480;-71
2021/10/23 11:47:52;;;;;;;19.70;17.90;;;17.10;99.90;;;;;;5089860;28;20454;-72
2021/10/23 11:50:25;;;;;;;23.67;20.97;;;17.60;99.90;;;;;;5068971;28;20951;-73
2021/10/23 11:52:57;;;;;;;19.90;18.33;;;17.30;99.90;;;;;;5082100;28;20461;-71
2021/10/23 11:55:36;;;;;;;19.67;17.90;;;17.50;99.90;;;;;;5077501;28;20467;-70
2021/10/23 11:58:07;;;;;;;19.60;17.90;;;17.50;99.90;;;;;;5079081;28;20748;-71
2021/10/23 12:00:35;;;;;;;19.67;18.07;;;17.30;99.90;;;;;;5087074;28;20810;-71
2021/10/23 12:03:04;;;;;;;21.53;17.63;;;17.10;99.90;;;;;;5090871;28;20472;-71
2021/10/23 12:05:45;;;;;;;18.60;17.30;;;17.30;99.90;;;;;;5087540;28;21014;-71
2021/10/23 12:08:28;;;;;;;19.60;18.30;;;17.50;99.90;;;;;;5083930;28;20464;-71
2021/10/23 12:11:20;;;;;;;22.40;20.40;;;17.60;99.90;;;;;;5093222;28;20695;-71
2021/10/23 12:14:08;;;;;;;21.97;19.87;;;17.50;99.90;;;;;;5074402;28;20500;-71
2021/10/23 12:16:38;;;;;;;21.60;19.50;;;17.30;99.90;;;;;;5083951;28;20472;-74
2021/10/23 12:19:09;;;;;;;22.50;20.90;;;17.10;99.90;;;;;;5081383;28;20465;-72
2021/10/23 12:21:45;;;;;;;23.73;21.60;;;16.90;99.90;;;;;;5090511;28;20979;-71
2021/10/23 12:24:15;;;;;;;23.80;20.37;;;16.80;99.90;;;;;;5094926;28;20515;-71
2021/10/23 12:26:44;;;;;;;23.00;20.80;;;17.10;99.90;;;;;;5089223;28;20542;-71
2021/10/23 12:29:13;;;;;;;22.03;19.93;;;17.10;99.90;;;;;;5085902;28;20477;-71
2021/10/23 12:32:00;;;;;;;22.57;20.80;;;16.90;99.90;;;;;;5079096;28;20459;-71
2021/10/23 12:34:29;;;;;;;22.20;20.30;;;16.80;99.90;;;;;;5092378;28;20556;-72
2021/10/23 12:36:57;;;;;;;21.67;19.90;;;16.80;99.90;;;;;;5098267;28;20462;-69
2021/10/23 12:39:26;;;;;;;21.57;19.93;;;16.80;99.90;;;;;;5101118;28;20540;-71
2021/10/23 12:41:54;;;;;;;21.73;19.90;;;17.00;99.90;;;;;;5087851;28;20466;-70
2021/10/23 12:44:25;;;;;;;21.80;20.20;;;16.70;99.90;;;;;;5089796;28;20461;-70
2021/10/23 12:46:53;;;;;;;22.63;20.47;;;16.80;99.90;;;;;;5086622;28;20555;-73